Search for airport 
image banner adimage banner adimage banner ad
image banner ad

PA36 - Stefanik

Located in Bedminster, United States

ICAO - PA36, IATA -

Data provided by Airmate  

General information

Coordinates: N40°27'10" W75°12'14"
Elevation is 520 feet MSL.
Magnetic variation is -12° East
View others Airports in Pennsylvania

Operational data

Special qualification required
Current time UTC:
Current local time:
Weather at : KCKZ - Pennridge ( 10 km )
METAR: KCKZ 091415Z AUTO 26003KT 10SM SCT110 10/06 A3009 RMK AO2
View NOTAMs / SUP AIP / TFR affecting this airport [VIEW]
Communications frequencies: [VIEW]

Runways:

RWY identifierQFULength (ft)Width (ft)SurfaceLDA (ft)
062050100GRASS
242050100GRASS

Airport contact information

Address: Bedminster United States

Satellite view of PA36